Rugby, ND (58368)

12:22 AM CST on February 10, 2016 (GMT -0600)
Rugby Municipal | | Change Station
CLOSE
Current Station
Airport
Location: Rugby,
Elevation: 1549 ft
Nearby Weather Stations
Active Advisory: Special Statement

Elev 1549 ft 48.39 °N, 100.02 °W | Updated 7 minutes ago

Snow
Snow
10 °F
Feels Like -6 °F
N
15
Wind Variable Wind from ESE

Today
High -- | Low -- °F
--% Chance of Precip.
Yesterday
High -- | Low -- °F
Precip. -- in
Pressure 30.06 in
Visibility 3.0 miles
Clouds Mostly Cloudy 200 ft
Mostly Cloudy 800 ft
Windchill -6 °F
Dew Point 7 °F
Humidity 85%
Rainfall 0.00 in
Snow Depth Not available.
7:55 AM 5:53 PM
Waxing Crescent, 4% visible
METAR KRUG 100615Z AUTO 12013KT 3SM -SN BKN002 BKN008 M12/M14 A3006 RMK AO2
Pressure 30.06 in
Visibility 3.0 miles
Clouds Mostly Cloudy 200 ft
Mostly Cloudy 800 ft
Windchill -6 °F
Dew Point 7 °F
Humidity 85%
Rainfall 0.00 in
Snow Depth Not available.
7:55 AM 5:53 PM
Waxing Crescent, 4% visible
METAR KRUG 100615Z AUTO 12013KT 3SM -SN BKN002 BKN008 M12/M14 A3006 RMK AO2

10-Day Weather Forecast

Almanac

Astronomy

Feb. 10, 2016 Rise Set
Actual Time
Civil Twilight
Nautical Twilight
Astronomical Twilight
Moon
Length of Visible Light
Length of Day
Tomorrow will be .
, % of the Moon is Illuminated

Today's Extremes

State Highs State Lows

Community

WunderPhotos

Upload Photos

1,891,826 photos uploaded!

WunderBlog® & News

Nearby

Air Quality

  Air Quality AQ Index Pollutant
Not available.

Snow Depth

Station Depth Elevation

Earthquake Activity

City Distance Mag. Time & Date
Minimum magnitude displayed is 2.5.

Coastal Water Temperatures

Place Temperature

Stations

Nearby Weather Stations

Station Location Temp. Windchill Dew Point Humidity Wind Precip. Elev Updated Type
                   

Watches & Warnings

Special Statement
Issued: 10:24 PM CST Feb. 9, 2016 – National Weather Service

... Accumulating snow from The Turtle mountains into the James
River Valley late tonight into Wednesday...

Snow over north central North Dakota late this evening will
spread south and east overnight... and persist into Wednesday
afternoon across the southern James River Valley. Between 2 and 4
inches of snow is likely along a line from Bottineau... Rolla and
Rugby... to Harvey... Carrington... Jamestown and Ellendale.

Be sure to allow extra time to reach your destination during your
Wednesday morning commute.

Twh

1024 PM CST Tue Feb 9 2016

... Accumulating snow from The Turtle mountains into the James
River Valley late tonight into Wednesday...

Snow over north central North Dakota late this evening will
spread south and east overnight... and persist into Wednesday
afternoon across the southern James River Valley. Between 2 and 4
inches of snow is likely along a line from Bottineau... Rolla and
Rugby... to Harvey... Carrington... Jamestown and Ellendale.

Be sure to allow extra time to reach your destination during your
Wednesday morning commute.

Twh